sensor_id;sensor_type;location;lat;lon;timestamp;temperature;humidity
12568;DHT22;6349;50.904;6.136;2022-12-18T00:01:25;-5.00;99.90
12568;DHT22;6349;50.904;6.136;2022-12-18T00:03:26;-4.90;99.90
12568;DHT22;6349;50.904;6.136;2022-12-18T00:05:27;-4.80;99.90
12568;DHT22;6349;50.904;6.136;2022-12-18T00:07:28;-4.80;99.90
12568;DHT22;6349;50.904;6.136;2022-12-18T00:09:29;-4.70;99.90
12568;DHT22;6349;50.904;6.136;2022-12-18T00:11:30;-4.70;99.90
12568;DHT22;6349;50.904;6.136;2022-12-18T00:13:31;-4.70;99.90
12568;DHT22;6349;50.904;6.136;2022-12-18T00:15:34;-4.70;99.90
12568;DHT22;6349;50.904;6.136;2022-12-18T00:17:34;-4.70;99.90
12568;DHT22;6349;50.904;6.136;2022-12-18T00:19:35;-4.70;99.90
12568;DHT22;6349;50.904;6.136;2022-12-18T00:21:35;-4.70;99.90
12568;DHT22;6349;50.904;6.136;2022-12-18T00:23:37;-4.80;99.90
12568;DHT22;6349;50.904;6.136;2022-12-18T00:25:38;-4.90;99.90
12568;DHT22;6349;50.904;6.136;2022-12-18T00:27:39;-5.00;99.90
12568;DHT22;6349;50.904;6.136;2022-12-18T00:29:39;-5.00;99.90
12568;DHT22;6349;50.904;6.136;2022-12-18T00:31:40;-5.10;99.90
12568;DHT22;6349;50.904;6.136;2022-12-18T00:33:42;-5.10;99.90
12568;DHT22;6349;50.904;6.136;2022-12-18T00:35:43;-5.10;99.90
12568;DHT22;6349;50.904;6.136;2022-12-18T00:37:43;-5.10;99.90
12568;DHT22;6349;50.904;6.136;2022-12-18T00:39:44;-5.20;99.90
12568;DHT22;6349;50.904;6.136;2022-12-18T00:41:44;-5.10;99.90
12568;DHT22;6349;50.904;6.136;2022-12-18T00:44:06;-5.10;99.90
12568;DHT22;6349;50.904;6.136;2022-12-18T00:46:07;-5.10;99.90
12568;DHT22;6349;50.904;6.136;2022-12-18T00:48:08;-5.10;99.90
12568;DHT22;6349;50.904;6.136;2022-12-18T00:50:09;-5.20;99.90
12568;DHT22;6349;50.904;6.136;2022-12-18T00:52:09;-5.30;99.90
12568;DHT22;6349;50.904;6.136;2022-12-18T00:54:10;-5.30;99.90
12568;DHT22;6349;50.904;6.136;2022-12-18T00:56:11;-5.30;99.90
12568;DHT22;6349;50.904;6.136;2022-12-18T00:58:13;-5.30;99.90
12568;DHT22;6349;50.904;6.136;2022-12-18T01:00:14;-5.30;99.90
12568;DHT22;6349;50.904;6.136;2022-12-18T01:02:15;-5.30;99.90
12568;DHT22;6349;50.904;6.136;2022-12-18T01:04:16;-5.30;99.90
12568;DHT22;6349;50.904;6.136;2022-12-18T01:06:16;-5.30;99.90
12568;DHT22;6349;50.904;6.136;2022-12-18T01:08:17;-5.30;99.90
12568;DHT22;6349;50.904;6.136;2022-12-18T01:10:18;-5.20;99.90
12568;DHT22;6349;50.904;6.136;2022-12-18T01:12:19;-5.30;99.90
12568;DHT22;6349;50.904;6.136;2022-12-18T01:14:19;-5.30;99.90
12568;DHT22;6349;50.904;6.136;2022-12-18T01:16:22;-5.30;99.90
12568;DHT22;6349;50.904;6.136;2022-12-18T01:18:23;-5.30;99.90
12568;DHT22;6349;50.904;6.136;2022-12-18T01:20:23;-5.20;99.90
12568;DHT22;6349;50.904;6.136;2022-12-18T01:22:24;-5.10;99.90
12568;DHT22;6349;50.904;6.136;2022-12-18T01:24:25;-5.10;99.90
12568;DHT22;6349;50.904;6.136;2022-12-18T01:26:26;-5.00;99.90
12568;DHT22;6349;50.904;6.136;2022-12-18T01:28:29;-5.00;99.90
12568;DHT22;6349;50.904;6.136;2022-12-18T01:30:30;-5.00;99.90
12568;DHT22;6349;50.904;6.136;2022-12-18T01:32:31;-5.00;99.90
12568;DHT22;6349;50.904;6.136;2022-12-18T01:34:32;-5.10;99.90
12568;DHT22;6349;50.904;6.136;2022-12-18T01:36:35;-5.10;99.90
12568;DHT22;6349;50.904;6.136;2022-12-18T01:38:36;-5.10;99.90
12568;DHT22;6349;50.904;6.136;2022-12-18T01:40:36;-5.20;99.90
12568;DHT22;6349;50.904;6.136;2022-12-18T01:42:37;-5.20;99.90
12568;DHT22;6349;50.904;6.136;2022-12-18T01:47:20;-5.30;99.90
12568;DHT22;6349;50.904;6.136;2022-12-18T01:49:21;-5.50;99.90
12568;DHT22;6349;50.904;6.136;2022-12-18T01:51:22;-5.50;99.90
12568;DHT22;6349;50.904;6.136;2022-12-18T01:53:23;-5.50;99.90
12568;DHT22;6349;50.904;6.136;2022-12-18T01:55:28;-5.40;99.90
12568;DHT22;6349;50.904;6.136;2022-12-18T01:57:29;-5.40;99.90
12568;DHT22;6349;50.904;6.136;2022-12-18T01:59:31;-5.40;99.90
12568;DHT22;6349;50.904;6.136;2022-12-18T02:01:33;-5.50;99.90
12568;DHT22;6349;50.904;6.136;2022-12-18T02:03:34;-5.50;99.90
12568;DHT22;6349;50.904;6.136;2022-12-18T02:05:44;-5.50;99.90
12568;DHT22;6349;50.904;6.136;2022-12-18T02:10:31;-5.50;99.90
12568;DHT22;6349;50.904;6.136;2022-12-18T02:12:43;-5.50;99.90
12568;DHT22;6349;50.904;6.136;2022-12-18T02:17:19;-5.50;99.90
12568;DHT22;6349;50.904;6.136;2022-12-18T02:22:33;-5.50;99.90
12568;DHT22;6349;50.904;6.136;2022-12-18T02:24:42;-5.50;99.90
12568;DHT22;6349;50.904;6.136;2022-12-18T02:26:49;-5.40;99.90
12568;DHT22;6349;50.904;6.136;2022-12-18T02:28:59;-5.40;99.90
12568;DHT22;6349;50.904;6.136;2022-12-18T02:31:02;-5.50;99.90
12568;DHT22;6349;50.904;6.136;2022-12-18T02:33:06;-5.50;99.90
12568;DHT22;6349;50.904;6.136;2022-12-18T02:35:13;-5.50;99.90
12568;DHT22;6349;50.904;6.136;2022-12-18T02:37:18;-5.50;99.90
12568;DHT22;6349;50.904;6.136;2022-12-18T02:39:19;-5.60;99.90
12568;DHT22;6349;50.904;6.136;2022-12-18T02:41:24;-5.60;99.90
12568;DHT22;6349;50.904;6.136;2022-12-18T02:43:26;-5.60;99.90
12568;DHT22;6349;50.904;6.136;2022-12-18T02:45:26;-5.60;99.90
12568;DHT22;6349;50.904;6.136;2022-12-18T02:47:31;-5.60;99.90
12568;DHT22;6349;50.904;6.136;2022-12-18T02:52:18;-5.70;99.90
12568;DHT22;6349;50.904;6.136;2022-12-18T02:54:36;-5.60;99.90
12568;DHT22;6349;50.904;6.136;2022-12-18T02:56:46;-5.70;99.90
12568;DHT22;6349;50.904;6.136;2022-12-18T02:58:58;-5.60;99.90
12568;DHT22;6349;50.904;6.136;2022-12-18T03:01:43;-5.60;99.90
12568;DHT22;6349;50.904;6.136;2022-12-18T03:03:30;-5.60;99.90
12568;DHT22;6349;50.904;6.136;2022-12-18T03:08:14;-5.80;99.90
12568;DHT22;6349;50.904;6.136;2022-12-18T03:10:19;-5.80;99.90
12568;DHT22;6349;50.904;6.136;2022-12-18T03:12:30;-5.80;99.90
12568;DHT22;6349;50.904;6.136;2022-12-18T03:14:34;-5.90;99.90
12568;DHT22;6349;50.904;6.136;2022-12-18T03:16:38;-5.90;99.90
12568;DHT22;6349;50.904;6.136;2022-12-18T03:18:49;-5.80;99.90
12568;DHT22;6349;50.904;6.136;2022-12-18T03:20:53;-5.80;99.90
12568;DHT22;6349;50.904;6.136;2022-12-18T03:23:02;-5.80;99.90
12568;DHT22;6349;50.904;6.136;2022-12-18T03:25:08;-5.80;99.90
12568;DHT22;6349;50.904;6.136;2022-12-18T03:27:13;-5.80;99.90
12568;DHT22;6349;50.904;6.136;2022-12-18T03:29:21;-5.80;99.90
12568;DHT22;6349;50.904;6.136;2022-12-18T03:31:23;-5.80;99.90
12568;DHT22;6349;50.904;6.136;2022-12-18T03:33:31;-5.80;99.90
12568;DHT22;6349;50.904;6.136;2022-12-18T03:35:40;-5.80;99.90
12568;DHT22;6349;50.904;6.136;2022-12-18T03:37:41;-5.90;99.90
12568;DHT22;6349;50.904;6.136;2022-12-18T03:39:42;-5.90;99.90
12568;DHT22;6349;50.904;6.136;2022-12-18T03:41:48;-5.90;99.90
12568;DHT22;6349;50.904;6.136;2022-12-18T03:43:58;-5.90;99.90
12568;DHT22;6349;50.904;6.136;2022-12-18T03:46:28;-5.90;99.90
12568;DHT22;6349;50.904;6.136;2022-12-18T03:48:30;-5.90;99.90
12568;DHT22;6349;50.904;6.136;2022-12-18T03:51:24;-5.90;99.90
12568;DHT22;6349;50.904;6.136;2022-12-18T03:54:04;-5.90;99.90
12568;DHT22;6349;50.904;6.136;2022-12-18T03:55:52;-5.90;99.90
12568;DHT22;6349;50.904;6.136;2022-12-18T03:57:53;-5.90;99.90
12568;DHT22;6349;50.904;6.136;2022-12-18T03:59:58;-5.80;99.90
12568;DHT22;6349;50.904;6.136;2022-12-18T04:02:01;-5.80;99.90
12568;DHT22;6349;50.904;6.136;2022-12-18T04:04:05;-5.80;99.90
12568;DHT22;6349;50.904;6.136;2022-12-18T04:06:06;-5.80;99.90
12568;DHT22;6349;50.904;6.136;2022-12-18T04:08:07;-5.80;99.90
12568;DHT22;6349;50.904;6.136;2022-12-18T04:10:11;-5.80;99.90
12568;DHT22;6349;50.904;6.136;2022-12-18T04:12:13;-5.80;99.90
12568;DHT22;6349;50.904;6.136;2022-12-18T04:14:14;-5.80;99.90
12568;DHT22;6349;50.904;6.136;2022-12-18T04:16:14;-5.80;99.90
12568;DHT22;6349;50.904;6.136;2022-12-18T04:18:15;-5.80;99.90
12568;DHT22;6349;50.904;6.136;2022-12-18T04:20:17;-5.90;99.90
12568;DHT22;6349;50.904;6.136;2022-12-18T04:22:17;-5.90;99.90
12568;DHT22;6349;50.904;6.136;2022-12-18T04:24:18;-5.90;99.90
12568;DHT22;6349;50.904;6.136;2022-12-18T04:26:19;-5.90;99.90
12568;DHT22;6349;50.904;6.136;2022-12-18T04:28:20;-5.90;99.90
12568;DHT22;6349;50.904;6.136;2022-12-18T04:30:20;-5.80;99.90
12568;DHT22;6349;50.904;6.136;2022-12-18T04:32:21;-5.80;99.90
12568;DHT22;6349;50.904;6.136;2022-12-18T04:34:22;-5.90;99.90
12568;DHT22;6349;50.904;6.136;2022-12-18T04:36:26;-5.80;99.90
12568;DHT22;6349;50.904;6.136;2022-12-18T04:38:26;-5.90;99.90
12568;DHT22;6349;50.904;6.136;2022-12-18T04:40:27;-5.80;99.90
12568;DHT22;6349;50.904;6.136;2022-12-18T04:42:27;-5.90;99.90
12568;DHT22;6349;50.904;6.136;2022-12-18T04:44:28;-5.90;99.90
12568;DHT22;6349;50.904;6.136;2022-12-18T04:46:28;-5.90;99.90
12568;DHT22;6349;50.904;6.136;2022-12-18T04:48:29;-5.80;99.90
12568;DHT22;6349;50.904;6.136;2022-12-18T04:50:30;-5.80;99.90
12568;DHT22;6349;50.904;6.136;2022-12-18T04:52:31;-5.90;99.90
12568;DHT22;6349;50.904;6.136;2022-12-18T04:54:31;-5.90;99.90
12568;DHT22;6349;50.904;6.136;2022-12-18T04:56:32;-5.80;99.90
12568;DHT22;6349;50.904;6.136;2022-12-18T04:58:33;-5.90;99.90
12568;DHT22;6349;50.904;6.136;2022-12-18T05:00:33;-5.80;99.90
12568;DHT22;6349;50.904;6.136;2022-12-18T05:02:34;-5.80;99.90
12568;DHT22;6349;50.904;6.136;2022-12-18T05:04:34;-5.90;99.90
12568;DHT22;6349;50.904;6.136;2022-12-18T05:06:35;-5.90;99.90
12568;DHT22;6349;50.904;6.136;2022-12-18T05:08:36;-5.90;99.90
12568;DHT22;6349;50.904;6.136;2022-12-18T05:10:37;-5.90;99.90
12568;DHT22;6349;50.904;6.136;2022-12-18T05:12:37;-5.90;99.90
12568;DHT22;6349;50.904;6.136;2022-12-18T05:14:58;-5.90;99.90
12568;DHT22;6349;50.904;6.136;2022-12-18T05:16:58;-5.90;99.90
12568;DHT22;6349;50.904;6.136;2022-12-18T05:18:59;-5.90;99.90
12568;DHT22;6349;50.904;6.136;2022-12-18T05:21:00;-5.90;99.90
12568;DHT22;6349;50.904;6.136;2022-12-18T05:23:00;-5.90;99.90
12568;DHT22;6349;50.904;6.136;2022-12-18T05:25:01;-5.90;99.90
12568;DHT22;6349;50.904;6.136;2022-12-18T05:27:01;-5.90;99.90
12568;DHT22;6349;50.904;6.136;2022-12-18T05:29:02;-5.90;99.90
12568;DHT22;6349;50.904;6.136;2022-12-18T05:31:04;-5.90;99.90
12568;DHT22;6349;50.904;6.136;2022-12-18T05:33:05;-5.90;99.90
12568;DHT22;6349;50.904;6.136;2022-12-18T05:35:08;-5.80;99.90
12568;DHT22;6349;50.904;6.136;2022-12-18T05:37:08;-5.80;99.90
12568;DHT22;6349;50.904;6.136;2022-12-18T05:39:09;-5.80;99.90
12568;DHT22;6349;50.904;6.136;2022-12-18T05:41:09;-5.80;99.90
12568;DHT22;6349;50.904;6.136;2022-12-18T05:43:10;-5.80;99.90
12568;DHT22;6349;50.904;6.136;2022-12-18T05:45:11;-5.90;99.90
12568;DHT22;6349;50.904;6.136;2022-12-18T05:47:11;-5.90;99.90
12568;DHT22;6349;50.904;6.136;2022-12-18T05:49:12;-5.80;99.90
12568;DHT22;6349;50.904;6.136;2022-12-18T05:51:15;-5.80;99.90
12568;DHT22;6349;50.904;6.136;2022-12-18T05:53:17;-5.80;99.90
12568;DHT22;6349;50.904;6.136;2022-12-18T05:55:19;-5.80;99.90
12568;DHT22;6349;50.904;6.136;2022-12-18T05:57:20;-5.90;99.90
12568;DHT22;6349;50.904;6.136;2022-12-18T05:59:20;-5.90;99.90
12568;DHT22;6349;50.904;6.136;2022-12-18T06:01:24;-6.00;99.90
12568;DHT22;6349;50.904;6.136;2022-12-18T06:03:25;-5.90;99.90
12568;DHT22;6349;50.904;6.136;2022-12-18T06:05:26;-6.00;99.90
12568;DHT22;6349;50.904;6.136;2022-12-18T06:07:26;-6.00;99.90
12568;DHT22;6349;50.904;6.136;2022-12-18T06:09:28;-5.90;99.90
12568;DHT22;6349;50.904;6.136;2022-12-18T06:11:29;-5.90;99.90
12568;DHT22;6349;50.904;6.136;2022-12-18T06:13:30;-5.80;99.90
12568;DHT22;6349;50.904;6.136;2022-12-18T06:15:30;-5.80;99.90
12568;DHT22;6349;50.904;6.136;2022-12-18T06:17:32;-5.90;99.90
12568;DHT22;6349;50.904;6.136;2022-12-18T06:19:32;-5.90;99.90
12568;DHT22;6349;50.904;6.136;2022-12-18T06:21:33;-6.00;99.90
12568;DHT22;6349;50.904;6.136;2022-12-18T06:23:34;-6.00;99.90
12568;DHT22;6349;50.904;6.136;2022-12-18T06:25:38;-6.00;99.90
12568;DHT22;6349;50.904;6.136;2022-12-18T06:27:38;-5.90;99.90
12568;DHT22;6349;50.904;6.136;2022-12-18T06:29:39;-5.90;99.90
12568;DHT22;6349;50.904;6.136;2022-12-18T06:31:40;-5.80;99.90
12568;DHT22;6349;50.904;6.136;2022-12-18T06:33:41;-5.80;99.90
12568;DHT22;6349;50.904;6.136;2022-12-18T06:35:41;-5.80;99.90
12568;DHT22;6349;50.904;6.136;2022-12-18T06:37:42;-5.80;99.90
12568;DHT22;6349;50.904;6.136;2022-12-18T06:39:43;-5.70;99.90
12568;DHT22;6349;50.904;6.136;2022-12-18T06:41:43;-5.80;99.90
12568;DHT22;6349;50.904;6.136;2022-12-18T06:43:45;-5.70;99.90
12568;DHT22;6349;50.904;6.136;2022-12-18T06:45:45;-5.70;99.90
12568;DHT22;6349;50.904;6.136;2022-12-18T06:47:50;-5.70;99.90
12568;DHT22;6349;50.904;6.136;2022-12-18T06:49:50;-5.80;99.90
12568;DHT22;6349;50.904;6.136;2022-12-18T06:51:51;-5.70;99.90
12568;DHT22;6349;50.904;6.136;2022-12-18T06:53:52;-5.70;99.90
12568;DHT22;6349;50.904;6.136;2022-12-18T06:55:53;-5.70;99.90
12568;DHT22;6349;50.904;6.136;2022-12-18T06:57:53;-5.70;99.90
12568;DHT22;6349;50.904;6.136;2022-12-18T06:59:54;-5.70;99.90
12568;DHT22;6349;50.904;6.136;2022-12-18T07:01:54;-5.70;99.90
12568;DHT22;6349;50.904;6.136;2022-12-18T07:03:56;-5.70;99.90
12568;DHT22;6349;50.904;6.136;2022-12-18T07:05:57;-5.80;99.90
12568;DHT22;6349;50.904;6.136;2022-12-18T07:07:58;-5.80;99.90
12568;DHT22;6349;50.904;6.136;2022-12-18T07:09:59;-5.80;99.90
12568;DHT22;6349;50.904;6.136;2022-12-18T07:11:59;-5.80;99.90
12568;DHT22;6349;50.904;6.136;2022-12-18T07:14:00;-5.90;99.90
12568;DHT22;6349;50.904;6.136;2022-12-18T07:16:17;-5.90;99.90
12568;DHT22;6349;50.904;6.136;2022-12-18T07:18:18;-5.90;99.90
12568;DHT22;6349;50.904;6.136;2022-12-18T07:20:19;-5.80;99.90
12568;DHT22;6349;50.904;6.136;2022-12-18T07:22:19;-5.80;99.90
12568;DHT22;6349;50.904;6.136;2022-12-18T07:24:20;-5.80;99.90
12568;DHT22;6349;50.904;6.136;2022-12-18T07:26:21;-5.80;99.90
12568;DHT22;6349;50.904;6.136;2022-12-18T07:28:22;-5.80;99.90
12568;DHT22;6349;50.904;6.136;2022-12-18T07:30:24;-5.80;99.90
12568;DHT22;6349;50.904;6.136;2022-12-18T07:32:24;-5.70;99.90
12568;DHT22;6349;50.904;6.136;2022-12-18T07:34:25;-5.90;99.90
12568;DHT22;6349;50.904;6.136;2022-12-18T07:36:25;-5.90;99.90
12568;DHT22;6349;50.904;6.136;2022-12-18T07:38:26;-5.80;99.90
12568;DHT22;6349;50.904;6.136;2022-12-18T07:40:27;-5.80;99.90
12568;DHT22;6349;50.904;6.136;2022-12-18T07:42:27;-5.90;99.90
12568;DHT22;6349;50.904;6.136;2022-12-18T07:44:31;-5.90;99.90
12568;DHT22;6349;50.904;6.136;2022-12-18T07:46:31;-5.80;99.90
12568;DHT22;6349;50.904;6.136;2022-12-18T07:48:32;-5.80;99.90
12568;DHT22;6349;50.904;6.136;2022-12-18T07:50:33;-5.80;99.90
12568;DHT22;6349;50.904;6.136;2022-12-18T07:52:33;-5.80;99.90
12568;DHT22;6349;50.904;6.136;2022-12-18T07:54:34;-5.80;99.90
12568;DHT22;6349;50.904;6.136;2022-12-18T07:56:34;-5.80;99.90
12568;DHT22;6349;50.904;6.136;2022-12-18T07:58:35;-5.80;99.90
12568;DHT22;6349;50.904;6.136;2022-12-18T08:00:36;-5.80;99.90
12568;DHT22;6349;50.904;6.136;2022-12-18T08:02:37;-5.80;99.90
12568;DHT22;6349;50.904;6.136;2022-12-18T08:04:37;-5.80;99.90
12568;DHT22;6349;50.904;6.136;2022-12-18T08:06:38;-5.70;99.90
12568;DHT22;6349;50.904;6.136;2022-12-18T08:08:39;-5.70;99.90
12568;DHT22;6349;50.904;6.136;2022-12-18T08:10:41;-5.70;99.90
12568;DHT22;6349;50.904;6.136;2022-12-18T08:12:42;-5.70;99.90
12568;DHT22;6349;50.904;6.136;2022-12-18T08:14:42;-5.70;99.90
12568;DHT22;6349;50.904;6.136;2022-12-18T08:16:43;-5.60;99.90
12568;DHT22;6349;50.904;6.136;2022-12-18T08:18:43;-5.60;99.90
12568;DHT22;6349;50.904;6.136;2022-12-18T08:20:44;-5.50;99.90
12568;DHT22;6349;50.904;6.136;2022-12-18T08:22:45;-5.50;99.90
12568;DHT22;6349;50.904;6.136;2022-12-18T08:24:45;-5.50;99.90
12568;DHT22;6349;50.904;6.136;2022-12-18T08:26:46;-5.50;99.90
12568;DHT22;6349;50.904;6.136;2022-12-18T08:28:46;-5.40;99.90
12568;DHT22;6349;50.904;6.136;2022-12-18T08:30:51;-5.40;99.90
12568;DHT22;6349;50.904;6.136;2022-12-18T08:32:52;-5.40;99.90
12568;DHT22;6349;50.904;6.136;2022-12-18T08:34:54;-5.40;99.90
12568;DHT22;6349;50.904;6.136;2022-12-18T08:36:54;-5.30;99.90
12568;DHT22;6349;50.904;6.136;2022-12-18T08:38:55;-5.30;99.90
12568;DHT22;6349;50.904;6.136;2022-12-18T08:41:00;-5.30;99.90
12568;DHT22;6349;50.904;6.136;2022-12-18T08:43:01;-5.20;99.90
12568;DHT22;6349;50.904;6.136;2022-12-18T08:45:22;-5.20;99.90
12568;DHT22;6349;50.904;6.136;2022-12-18T08:47:22;-5.10;99.90
12568;DHT22;6349;50.904;6.136;2022-12-18T08:49:23;-5.10;99.90
12568;DHT22;6349;50.904;6.136;2022-12-18T08:51:24;-5.00;99.90
12568;DHT22;6349;50.904;6.136;2022-12-18T08:53:25;-5.00;99.90
12568;DHT22;6349;50.904;6.136;2022-12-18T08:55:26;-4.90;99.90
12568;DHT22;6349;50.904;6.136;2022-12-18T08:57:26;-4.90;99.90
12568;DHT22;6349;50.904;6.136;2022-12-18T08:59:27;-4.80;99.90
12568;DHT22;6349;50.904;6.136;2022-12-18T09:01:28;-4.80;99.90
12568;DHT22;6349;50.904;6.136;2022-12-18T09:03:28;-4.80;99.90
12568;DHT22;6349;50.904;6.136;2022-12-18T09:05:30;-4.70;99.90
12568;DHT22;6349;50.904;6.136;2022-12-18T09:07:30;-4.70;99.90
12568;DHT22;6349;50.904;6.136;2022-12-18T09:09:31;-4.60;99.90
12568;DHT22;6349;50.904;6.136;2022-12-18T09:11:32;-4.50;99.90
12568;DHT22;6349;50.904;6.136;2022-12-18T09:13:33;-4.50;99.90
12568;DHT22;6349;50.904;6.136;2022-12-18T09:15:33;-4.40;99.90
12568;DHT22;6349;50.904;6.136;2022-12-18T09:17:34;-4.40;99.90
12568;DHT22;6349;50.904;6.136;2022-12-18T09:19:34;-4.30;99.90
12568;DHT22;6349;50.904;6.136;2022-12-18T09:21:37;-4.20;99.90
12568;DHT22;6349;50.904;6.136;2022-12-18T09:23:39;-4.20;99.90
12568;DHT22;6349;50.904;6.136;2022-12-18T09:25:40;-4.10;99.90
12568;DHT22;6349;50.904;6.136;2022-12-18T09:27:41;-4.10;99.90
12568;DHT22;6349;50.904;6.136;2022-12-18T09:29:41;-4.00;99.90
12568;DHT22;6349;50.904;6.136;2022-12-18T09:31:42;-4.00;99.90
12568;DHT22;6349;50.904;6.136;2022-12-18T09:33:43;-3.90;99.90
12568;DHT22;6349;50.904;6.136;2022-12-18T09:35:45;-3.90;99.90
12568;DHT22;6349;50.904;6.136;2022-12-18T09:37:46;-3.90;99.90
12568;DHT22;6349;50.904;6.136;2022-12-18T09:39:47;-3.80;99.90
12568;DHT22;6349;50.904;6.136;2022-12-18T09:41:52;-3.80;99.90
12568;DHT22;6349;50.904;6.136;2022-12-18T09:43:58;-3.70;99.90
12568;DHT22;6349;50.904;6.136;2022-12-18T09:46:05;-3.70;99.90
12568;DHT22;6349;50.904;6.136;2022-12-18T09:48:14;-3.60;99.90
12568;DHT22;6349;50.904;6.136;2022-12-18T09:50:24;-3.60;99.90
12568;DHT22;6349;50.904;6.136;2022-12-18T09:52:45;-3.60;99.90
12568;DHT22;6349;50.904;6.136;2022-12-18T09:54:53;-3.50;99.90
12568;DHT22;6349;50.904;6.136;2022-12-18T09:56:55;-3.40;99.90
12568;DHT22;6349;50.904;6.136;2022-12-18T09:58:58;-3.40;99.90
12568;DHT22;6349;50.904;6.136;2022-12-18T10:01:00;-3.40;99.90
12568;DHT22;6349;50.904;6.136;2022-12-18T10:03:10;-3.30;99.90
12568;DHT22;6349;50.904;6.136;2022-12-18T10:05:15;-3.30;99.90
12568;DHT22;6349;50.904;6.136;2022-12-18T10:07:40;-3.20;99.90
12568;DHT22;6349;50.904;6.136;2022-12-18T10:10:05;-3.20;99.90
12568;DHT22;6349;50.904;6.136;2022-12-18T10:12:31;-3.10;99.90
12568;DHT22;6349;50.904;6.136;2022-12-18T10:14:48;-3.10;99.90
12568;DHT22;6349;50.904;6.136;2022-12-18T10:17:13;-3.00;99.90
12568;DHT22;6349;50.904;6.136;2022-12-18T10:22:07;-3.00;99.90
12568;DHT22;6349;50.904;6.136;2022-12-18T10:24:37;-2.90;99.90
12568;DHT22;6349;50.904;6.136;2022-12-18T10:26:41;-2.90;99.90
12568;DHT22;6349;50.904;6.136;2022-12-18T10:28:42;-2.80;99.90
12568;DHT22;6349;50.904;6.136;2022-12-18T10:30:44;-2.80;99.90
12568;DHT22;6349;50.904;6.136;2022-12-18T10:32:44;-2.70;99.90
12568;DHT22;6349;50.904;6.136;2022-12-18T10:34:50;-2.70;99.90
12568;DHT22;6349;50.904;6.136;2022-12-18T10:36:51;-2.70;99.90
12568;DHT22;6349;50.904;6.136;2022-12-18T10:38:51;-2.60;99.90
12568;DHT22;6349;50.904;6.136;2022-12-18T10:43:35;-2.50;99.90
12568;DHT22;6349;50.904;6.136;2022-12-18T10:45:36;-2.50;99.90
12568;DHT22;6349;50.904;6.136;2022-12-18T10:47:42;-2.50;99.90
12568;DHT22;6349;50.904;6.136;2022-12-18T10:49:52;-2.40;99.90
12568;DHT22;6349;50.904;6.136;2022-12-18T10:52:16;-2.40;99.90
12568;DHT22;6349;50.904;6.136;2022-12-18T10:54:21;-2.30;99.90
12568;DHT22;6349;50.904;6.136;2022-12-18T10:56:24;-2.30;99.90
12568;DHT22;6349;50.904;6.136;2022-12-18T10:58:28;-2.30;99.90
12568;DHT22;6349;50.904;6.136;2022-12-18T11:00:30;-2.30;99.90
12568;DHT22;6349;50.904;6.136;2022-12-18T11:02:36;-2.20;99.90
12568;DHT22;6349;50.904;6.136;2022-12-18T11:04:50;-2.20;99.90
12568;DHT22;6349;50.904;6.136;2022-12-18T11:06:54;-2.20;99.90
12568;DHT22;6349;50.904;6.136;2022-12-18T11:09:18;-2.10;99.90
12568;DHT22;6349;50.904;6.136;2022-12-18T11:11:21;-2.10;99.90
12568;DHT22;6349;50.904;6.136;2022-12-18T11:13:24;-2.00;99.90
12568;DHT22;6349;50.904;6.136;2022-12-18T11:15:28;-2.00;99.90
12568;DHT22;6349;50.904;6.136;2022-12-18T11:17:33;-2.00;99.90
12568;DHT22;6349;50.904;6.136;2022-12-18T11:19:37;-2.00;99.90
12568;DHT22;6349;50.904;6.136;2022-12-18T11:21:41;-1.90;99.90
12568;DHT22;6349;50.904;6.136;2022-12-18T11:23:57;-1.90;99.90
12568;DHT22;6349;50.904;6.136;2022-12-18T11:26:00;-1.80;99.90
12568;DHT22;6349;50.904;6.136;2022-12-18T11:28:04;-1.80;99.90
12568;DHT22;6349;50.904;6.136;2022-12-18T11:30:20;-1.70;99.90
12568;DHT22;6349;50.904;6.136;2022-12-18T11:34:49;-1.70;99.90
12568;DHT22;6349;50.904;6.136;2022-12-18T11:36:52;-1.70;99.90
12568;DHT22;6349;50.904;6.136;2022-12-18T11:38:54;-1.60;99.90
12568;DHT22;6349;50.904;6.136;2022-12-18T11:41:27;-1.60;99.90
12568;DHT22;6349;50.904;6.136;2022-12-18T11:43:56;-1.60;99.90
12568;DHT22;6349;50.904;6.136;2022-12-18T11:46:10;-1.60;99.90
12568;DHT22;6349;50.904;6.136;2022-12-18T11:48:49;-1.50;99.90
12568;DHT22;6349;50.904;6.136;2022-12-18T11:50:56;-1.50;99.90
12568;DHT22;6349;50.904;6.136;2022-12-18T11:52:57;-1.50;99.90
12568;DHT22;6349;50.904;6.136;2022-12-18T11:55:00;-1.50;99.90
12568;DHT22;6349;50.904;6.136;2022-12-18T11:57:42;-1.40;99.90
12568;DHT22;6349;50.904;6.136;2022-12-18T12:00:01;-1.40;99.90
12568;DHT22;6349;50.904;6.136;2022-12-18T12:02:17;-1.30;99.90
12568;DHT22;6349;50.904;6.136;2022-12-18T12:04:41;-1.30;99.90
12568;DHT22;6349;50.904;6.136;2022-12-18T12:15:02;-1.30;99.90
12568;DHT22;6349;50.904;6.136;2022-12-18T12:17:17;-1.20;99.90
12568;DHT22;6349;50.904;6.136;2022-12-18T12:19:48;-1.10;99.90
12568;DHT22;6349;50.904;6.136;2022-12-18T12:22:18;-1.10;99.90
12568;DHT22;6349;50.904;6.136;2022-12-18T12:24:31;-1.10;99.90
12568;DHT22;6349;50.904;6.136;2022-12-18T12:33:57;-0.90;99.90
12568;DHT22;6349;50.904;6.136;2022-12-18T12:36:12;-0.90;99.90
12568;DHT22;6349;50.904;6.136;2022-12-18T12:38:20;-0.90;99.90
12568;DHT22;6349;50.904;6.136;2022-12-18T12:40:26;-0.90;99.90
12568;DHT22;6349;50.904;6.136;2022-12-18T12:42:47;-0.90;99.90
12568;DHT22;6349;50.904;6.136;2022-12-18T12:45:16;-0.90;99.90
12568;DHT22;6349;50.904;6.136;2022-12-18T12:47:23;-0.90;99.90
12568;DHT22;6349;50.904;6.136;2022-12-18T12:49:27;-0.80;99.90
12568;DHT22;6349;50.904;6.136;2022-12-18T12:51:34;-0.80;99.90
12568;DHT22;6349;50.904;6.136;2022-12-18T12:53:37;-0.80;99.90
12568;DHT22;6349;50.904;6.136;2022-12-18T12:55:40;-0.80;99.90
12568;DHT22;6349;50.904;6.136;2022-12-18T12:57:46;-0.90;99.90
12568;DHT22;6349;50.904;6.136;2022-12-18T13:00:09;-0.80;99.90
12568;DHT22;6349;50.904;6.136;2022-12-18T13:02:28;-0.80;99.90
12568;DHT22;6349;50.904;6.136;2022-12-18T13:04:47;-0.80;99.90
12568;DHT22;6349;50.904;6.136;2022-12-18T13:07:27;-0.80;99.90
12568;DHT22;6349;50.904;6.136;2022-12-18T13:09:32;-0.80;99.90
12568;DHT22;6349;50.904;6.136;2022-12-18T13:11:43;-0.80;99.90
12568;DHT22;6349;50.904;6.136;2022-12-18T13:14:05;-0.70;99.90
12568;DHT22;6349;50.904;6.136;2022-12-18T13:16:22;-0.70;99.90
12568;DHT22;6349;50.904;6.136;2022-12-18T13:18:24;-0.80;99.90
12568;DHT22;6349;50.904;6.136;2022-12-18T13:20:33;-0.80;99.90
12568;DHT22;6349;50.904;6.136;2022-12-18T13:22:38;-0.70;99.90
12568;DHT22;6349;50.904;6.136;2022-12-18T13:24:39;-0.70;99.90
12568;DHT22;6349;50.904;6.136;2022-12-18T13:26:41;-0.70;99.90
12568;DHT22;6349;50.904;6.136;2022-12-18T13:30:57;-0.70;99.90
12568;DHT22;6349;50.904;6.136;2022-12-18T13:37:43;-0.70;99.90
12568;DHT22;6349;50.904;6.136;2022-12-18T13:39:51;-0.70;99.90
12568;DHT22;6349;50.904;6.136;2022-12-18T13:41:54;-0.70;99.90
12568;DHT22;6349;50.904;6.136;2022-12-18T13:44:36;-0.70;99.90
12568;DHT22;6349;50.904;6.136;2022-12-18T13:46:45;-0.70;99.90
12568;DHT22;6349;50.904;6.136;2022-12-18T13:48:56;-0.70;99.90
12568;DHT22;6349;50.904;6.136;2022-12-18T13:51:17;-0.70;99.90
12568;DHT22;6349;50.904;6.136;2022-12-18T13:53:22;-0.70;99.90
12568;DHT22;6349;50.904;6.136;2022-12-18T13:55:23;-0.70;99.90
12568;DHT22;6349;50.904;6.136;2022-12-18T13:57:39;-0.70;99.90
12568;DHT22;6349;50.904;6.136;2022-12-18T13:59:41;-0.70;99.90
12568;DHT22;6349;50.904;6.136;2022-12-18T14:01:44;-0.70;99.90
12568;DHT22;6349;50.904;6.136;2022-12-18T14:03:44;-0.80;99.90
12568;DHT22;6349;50.904;6.136;2022-12-18T14:05:45;-0.80;99.90
12568;DHT22;6349;50.904;6.136;2022-12-18T14:07:53;-0.80;99.90